createdAt,value
2018-05-11T00:00:49.599Z,7.70
2018-05-11T00:01:52.132Z,7.80
2018-05-11T00:02:55.423Z,7.80
2018-05-11T00:03:57.959Z,7.70
2018-05-11T00:05:00.490Z,7.80
2018-05-11T00:06:02.993Z,7.80
2018-05-11T00:07:05.515Z,7.70
2018-05-11T00:08:08.034Z,7.80
2018-05-11T00:09:10.568Z,7.70
2018-05-11T00:10:13.093Z,7.80
2018-05-11T00:11:15.603Z,7.80
2018-05-11T00:12:18.122Z,7.80
2018-05-11T00:13:20.653Z,7.80
2018-05-11T00:14:23.181Z,7.80
2018-05-11T00:15:26.473Z,7.80
2018-05-11T00:16:29.746Z,7.80
2018-05-11T00:17:32.257Z,7.80
2018-05-11T00:18:34.808Z,7.80
2018-05-11T00:19:37.341Z,7.80
2018-05-11T00:20:39.839Z,7.70
2018-05-11T00:21:42.332Z,7.70
2018-05-11T00:22:44.837Z,7.60
2018-05-11T00:23:47.387Z,7.70
2018-05-11T00:24:49.905Z,7.60
2018-05-11T00:25:52.428Z,7.60
2018-05-11T00:26:54.936Z,7.60
2018-05-11T00:27:57.445Z,7.50
2018-05-11T00:29:00.733Z,7.50
2018-05-11T00:30:07.054Z,7.50
2018-05-11T00:31:09.586Z,7.50
2018-05-11T00:32:12.109Z,7.50
2018-05-11T00:33:15.396Z,7.50
2018-05-11T00:34:17.917Z,7.50
2018-05-11T00:35:20.660Z,7.50
2018-05-11T00:36:23.952Z,7.50
2018-05-11T00:37:27.236Z,7.50
2018-05-11T00:38:29.839Z,7.50
2018-05-11T00:39:32.391Z,7.60
2018-05-11T00:40:35.698Z,7.50
2018-05-11T00:41:38.234Z,7.50
2018-05-11T00:42:41.596Z,7.50
2018-05-11T00:43:44.122Z,7.50
2018-05-11T00:44:46.642Z,7.60
2018-05-11T00:45:49.171Z,7.50
2018-05-11T00:46:51.676Z,7.50
2018-05-11T00:47:54.167Z,7.60
2018-05-11T00:48:56.654Z,7.60
2018-05-11T00:49:59.922Z,7.60
2018-05-11T00:51:02.490Z,7.60
2018-05-11T00:52:05.722Z,7.60
2018-05-11T00:53:08.236Z,7.60
2018-05-11T00:54:10.760Z,7.50
2018-05-11T00:55:25.141Z,7.50
2018-05-11T00:56:27.633Z,7.50
2018-05-11T00:57:30.209Z,7.50
2018-05-11T00:58:32.832Z,7.50
2018-05-11T00:59:35.330Z,7.50
2018-05-11T01:00:37.837Z,7.50
2018-05-11T01:01:40.340Z,7.40
2018-05-11T01:02:42.825Z,7.40
2018-05-11T01:03:45.327Z,7.40
2018-05-11T01:04:47.826Z,7.40
2018-05-11T01:05:50.490Z,7.40
2018-05-11T01:06:52.994Z,7.40
2018-05-11T01:07:55.527Z,7.30
2018-05-11T01:08:58.053Z,7.30
2018-05-11T01:10:00.571Z,7.30
2018-05-11T01:11:03.079Z,7.40
2018-05-11T01:12:05.585Z,7.30
2018-05-11T01:13:08.112Z,7.30
2018-05-11T01:14:11.393Z,7.30
2018-05-11T01:15:14.688Z,7.20
2018-05-11T01:16:17.203Z,7.20
2018-05-11T01:17:19.741Z,7.20
2018-05-11T01:18:22.248Z,7.10
2018-05-11T01:19:24.741Z,7.10
2018-05-11T01:20:27.253Z,7.10
2018-05-11T01:21:29.758Z,7.10
2018-05-11T01:22:32.272Z,7.10
2018-05-11T01:23:35.549Z,7.00
2018-05-11T01:24:38.807Z,7.10
2018-05-11T01:25:41.310Z,7.10
2018-05-11T01:26:44.585Z,7.10
2018-05-11T01:27:47.082Z,7.10
2018-05-11T01:28:50.349Z,7.10
2018-05-11T01:29:53.627Z,7.00
2018-05-11T01:30:56.131Z,7.00
2018-05-11T01:31:58.623Z,7.00
2018-05-11T01:33:01.116Z,7.00
2018-05-11T01:34:03.632Z,7.00
2018-05-11T01:35:06.895Z,7.00
2018-05-11T01:36:09.403Z,7.00
2018-05-11T01:37:11.899Z,7.00
2018-05-11T01:38:14.394Z,7.00
2018-05-11T01:39:16.924Z,6.90
2018-05-11T01:40:19.493Z,6.90
2018-05-11T01:41:21.976Z,6.90
2018-05-11T01:42:24.478Z,6.90
2018-05-11T01:43:27.028Z,6.90
2018-05-11T01:44:29.541Z,6.90
2018-05-11T01:45:32.054Z,6.90
2018-05-11T01:46:34.585Z,6.90
2018-05-11T01:47:37.081Z,6.80
2018-05-11T01:48:39.571Z,6.90
2018-05-11T01:49:42.099Z,6.90
2018-05-11T01:50:45.370Z,6.90
2018-05-11T01:51:47.862Z,6.90
2018-05-11T01:52:51.174Z,6.90
2018-05-11T01:53:53.671Z,6.90
2018-05-11T01:54:56.212Z,6.90
2018-05-11T01:55:58.740Z,6.90
2018-05-11T01:57:01.234Z,6.90
2018-05-11T01:58:04.492Z,6.90
2018-05-11T01:59:06.980Z,6.90
2018-05-11T02:00:09.499Z,6.90
2018-05-11T02:01:12.009Z,6.90
2018-05-11T02:02:14.512Z,6.90
2018-05-11T02:03:17.773Z,6.80
2018-05-11T02:04:20.266Z,6.80
2018-05-11T02:05:23.553Z,6.80
2018-05-11T02:06:26.809Z,6.80
2018-05-11T02:07:29.312Z,6.70
2018-05-11T02:08:32.576Z,6.70
2018-05-11T02:09:35.831Z,6.70
2018-05-11T02:10:38.368Z,6.70
2018-05-11T02:11:46.853Z,6.70
2018-05-11T02:12:49.806Z,6.70
2018-05-11T02:13:52.314Z,6.60
2018-05-11T02:14:55.585Z,6.60
2018-05-11T02:15:58.105Z,6.70
2018-05-11T02:17:00.597Z,6.70
2018-05-11T02:18:03.091Z,6.70
2018-05-11T02:19:05.609Z,6.60
2018-05-11T02:20:08.109Z,6.60
2018-05-11T02:21:10.627Z,6.60
2018-05-11T02:22:13.888Z,6.60
2018-05-11T02:23:17.148Z,6.60
2018-05-11T02:24:19.651Z,6.60
2018-05-11T02:25:22.172Z,6.60
2018-05-11T02:26:24.671Z,6.60
2018-05-11T02:27:27.161Z,6.60
2018-05-11T02:28:29.669Z,6.60
2018-05-11T02:29:32.182Z,6.60
2018-05-11T02:30:34.714Z,6.70
2018-05-11T02:31:37.214Z,6.60
2018-05-11T02:32:39.710Z,6.60
2018-05-11T02:33:42.218Z,6.60
2018-05-11T02:34:44.717Z,6.60
2018-05-11T02:35:47.222Z,6.60
2018-05-11T02:36:49.739Z,6.60
2018-05-11T02:37:52.232Z,6.70
2018-05-11T02:38:54.734Z,6.70
2018-05-11T02:39:57.235Z,6.80
2018-05-11T02:41:00.481Z,6.80
2018-05-11T02:42:02.997Z,6.80
2018-05-11T02:43:05.485Z,6.80
2018-05-11T02:44:07.980Z,6.80
2018-05-11T02:45:10.618Z,6.70
2018-05-11T02:46:13.134Z,6.70
2018-05-11T02:47:15.652Z,6.60
2018-05-11T02:48:18.150Z,6.60
2018-05-11T02:49:20.653Z,6.50
2018-05-11T02:50:24.683Z,6.50
2018-05-11T02:51:27.945Z,6.50
2018-05-11T02:52:30.480Z,6.40
2018-05-11T02:53:32.967Z,6.50
2018-05-11T02:54:35.455Z,6.50
2018-05-11T02:55:37.952Z,6.40
2018-05-11T02:56:41.214Z,6.40
2018-05-11T02:57:43.712Z,6.40
2018-05-11T02:58:46.981Z,6.40
2018-05-11T02:59:49.477Z,6.40
2018-05-11T03:00:52.745Z,6.40
2018-05-11T03:01:56.013Z,6.40
2018-05-11T03:02:58.517Z,6.40
2018-05-11T03:04:01.777Z,6.40
2018-05-11T03:05:04.284Z,6.30
2018-05-11T03:06:06.774Z,6.40
2018-05-11T03:07:09.264Z,6.40
2018-05-11T03:08:11.917Z,6.40
2018-05-11T03:09:14.409Z,6.40
2018-05-11T03:10:17.097Z,6.40
2018-05-11T03:11:19.610Z,6.40
2018-05-11T03:12:22.869Z,6.40
2018-05-11T03:13:25.374Z,6.40
2018-05-11T03:14:27.915Z,6.40
2018-05-11T03:15:30.456Z,6.40
2018-05-11T03:16:32.971Z,6.30
2018-05-11T03:17:36.293Z,6.30
2018-05-11T03:18:39.734Z,6.30
2018-05-11T03:19:42.205Z,6.30
2018-05-11T03:20:44.763Z,6.30
2018-05-11T03:21:47.263Z,6.30
2018-05-11T03:22:50.514Z,6.30
2018-05-11T03:23:53.021Z,6.30
2018-05-11T03:24:56.273Z,6.30
2018-05-11T03:25:58.764Z,6.30
2018-05-11T03:27:01.267Z,6.30
2018-05-11T03:28:03.767Z,6.30
2018-05-11T03:29:06.280Z,6.30
2018-05-11T03:30:09.555Z,6.30
2018-05-11T03:31:12.077Z,6.30
2018-05-11T03:32:14.571Z,6.40
2018-05-11T03:33:17.077Z,6.40
2018-05-11T03:34:20.352Z,6.40
2018-05-11T03:35:22.846Z,6.40
2018-05-11T03:36:26.126Z,6.40
2018-05-11T03:37:29.408Z,6.40
2018-05-11T03:38:32.693Z,6.40
2018-05-11T03:39:35.302Z,6.40
2018-05-11T03:40:37.829Z,6.40
2018-05-11T03:41:40.318Z,6.40
2018-05-11T03:42:43.570Z,6.50
2018-05-11T03:43:46.078Z,6.50
2018-05-11T03:44:49.349Z,6.60
2018-05-11T03:45:51.855Z,6.60
2018-05-11T03:46:54.363Z,6.60
2018-05-11T03:47:56.856Z,6.60
2018-05-11T03:48:59.363Z,6.60
2018-05-11T03:50:02.673Z,6.60
2018-05-11T03:51:05.202Z,6.60
2018-05-11T03:52:07.725Z,6.60
2018-05-11T03:53:10.287Z,6.60
2018-05-11T03:54:12.789Z,6.70
2018-05-11T03:55:15.343Z,6.80
2018-05-11T03:56:17.837Z,6.80
2018-05-11T03:57:20.332Z,6.80
2018-05-11T03:58:23.612Z,6.90
2018-05-11T03:59:26.871Z,6.90
2018-05-11T04:00:29.400Z,6.90
2018-05-11T04:01:43.759Z,7.00
2018-05-11T04:02:58.245Z,7.00
2018-05-11T04:04:12.653Z,7.10
2018-05-11T04:05:27.994Z,7.20
2018-05-11T04:06:42.485Z,7.30
2018-05-11T04:07:56.821Z,7.40
2018-05-11T04:08:59.327Z,7.40
2018-05-11T04:10:01.817Z,7.50
2018-05-11T04:11:04.315Z,7.50
2018-05-11T04:12:07.615Z,7.60
2018-05-11T04:13:10.237Z,7.60
2018-05-11T04:14:13.430Z,7.70
2018-05-11T04:15:15.947Z,7.70
2018-05-11T04:16:18.445Z,7.70
2018-05-11T04:17:20.951Z,7.70
2018-05-11T04:18:23.444Z,7.80
2018-05-11T04:19:26.700Z,7.90
2018-05-11T04:20:29.202Z,7.80
2018-05-11T04:21:32.461Z,8.00
2018-05-11T04:22:34.976Z,8.00
2018-05-11T04:23:37.467Z,8.10
2018-05-11T04:24:40.016Z,8.10
2018-05-11T04:25:42.529Z,8.10
2018-05-11T04:26:45.078Z,8.20
2018-05-11T04:27:48.322Z,8.20
2018-05-11T04:28:51.601Z,8.30
2018-05-11T04:29:54.118Z,8.30
2018-05-11T04:30:56.896Z,8.30
2018-05-11T04:31:59.417Z,8.40
2018-05-11T04:33:03.706Z,8.40
2018-05-11T04:34:06.215Z,8.40
2018-05-11T04:35:09.477Z,8.50
2018-05-11T04:36:11.990Z,8.50
2018-05-11T04:37:14.539Z,8.50
2018-05-11T04:38:17.017Z,8.50
2018-05-11T04:39:19.521Z,8.60
2018-05-11T04:40:22.028Z,8.60
2018-05-11T04:41:24.540Z,8.70
2018-05-11T04:42:27.797Z,8.80
2018-05-11T04:43:30.295Z,8.80
2018-05-11T04:44:33.570Z,8.90
2018-05-11T04:45:36.870Z,8.90
2018-05-11T04:46:40.129Z,8.90
2018-05-11T04:47:44.258Z,9.00
2018-05-11T04:48:47.539Z,9.00
2018-05-11T04:49:50.041Z,9.00
2018-05-11T04:50:52.572Z,9.10
2018-05-11T04:51:55.062Z,9.10
2018-05-11T04:52:58.326Z,9.20
2018-05-11T04:54:00.811Z,9.20
2018-05-11T04:55:04.084Z,9.30
2018-05-11T04:56:07.443Z,9.30
2018-05-11T04:57:09.971Z,9.30
2018-05-11T04:58:13.250Z,9.40
2018-05-11T04:59:16.516Z,9.40
2018-05-11T05:00:19.039Z,9.40
2018-05-11T05:01:21.545Z,9.40
2018-05-11T05:02:24.049Z,9.40
2018-05-11T05:03:26.540Z,9.50
2018-05-11T05:04:29.052Z,9.50
2018-05-11T05:05:31.568Z,9.60
2018-05-11T05:06:34.818Z,9.60
2018-05-11T05:07:37.326Z,9.70
2018-05-11T05:08:40.597Z,9.70
2018-05-11T05:09:43.090Z,9.70
2018-05-11T05:10:45.643Z,9.80
2018-05-11T05:11:48.145Z,9.80
2018-05-11T05:12:50.662Z,9.80
2018-05-11T05:13:53.158Z,9.80
2018-05-11T05:14:56.438Z,9.80
2018-05-11T05:15:58.940Z,9.80
2018-05-11T05:17:01.485Z,9.80
2018-05-11T05:18:04.002Z,9.80
2018-05-11T05:19:06.526Z,9.90
2018-05-11T05:20:09.020Z,9.90
2018-05-11T05:21:11.539Z,10.00
2018-05-11T05:22:14.049Z,10.00
2018-05-11T05:23:16.606Z,10.00
2018-05-11T05:24:19.100Z,10.10
2018-05-11T05:25:22.372Z,10.10
2018-05-11T05:26:25.639Z,10.20
2018-05-11T05:27:28.159Z,10.10
2018-05-11T05:28:30.696Z,10.20
2018-05-11T05:29:33.466Z,10.30
2018-05-11T05:30:36.090Z,10.30
2018-05-11T05:31:38.585Z,10.30
2018-05-11T05:32:41.148Z,10.30
2018-05-11T05:33:43.662Z,10.40
2018-05-11T05:34:46.979Z,10.40
2018-05-11T05:35:49.511Z,10.40
2018-05-11T05:36:52.017Z,10.40
2018-05-11T05:37:54.528Z,10.30
2018-05-11T05:38:57.032Z,10.40
2018-05-11T05:40:00.301Z,10.40
2018-05-11T05:41:02.828Z,10.40
2018-05-11T05:42:05.325Z,10.50
2018-05-11T05:43:07.850Z,10.50
2018-05-11T05:44:11.131Z,10.60
2018-05-11T05:45:14.410Z,10.60
2018-05-11T05:46:17.694Z,10.60
2018-05-11T05:47:20.968Z,10.50
2018-05-11T05:48:23.470Z,10.50
2018-05-11T05:49:26.010Z,10.50
2018-05-11T05:50:28.500Z,10.50
2018-05-11T05:51:31.783Z,10.50
2018-05-11T05:52:35.048Z,10.60
2018-05-11T05:53:37.584Z,10.50
2018-05-11T05:54:40.095Z,10.60
2018-05-11T05:55:42.608Z,10.60
2018-05-11T05:56:45.138Z,10.70
2018-05-11T05:57:47.655Z,10.70
2018-05-11T05:58:50.151Z,10.80
2018-05-11T05:59:52.701Z,10.90
2018-05-11T06:00:55.933Z,10.90
2018-05-11T06:01:58.446Z,10.90
2018-05-11T06:03:00.948Z,11.00
2018-05-11T06:04:03.459Z,11.10
2018-05-11T06:05:06.750Z,11.20
2018-05-11T06:06:09.267Z,11.20
2018-05-11T06:07:11.923Z,11.20
2018-05-11T06:08:14.456Z,11.30
2018-05-11T06:09:16.932Z,11.20
2018-05-11T06:10:20.211Z,11.10
2018-05-11T06:11:22.712Z,11.10
2018-05-11T06:12:25.987Z,11.00
2018-05-11T06:13:29.264Z,11.00
2018-05-11T06:14:31.758Z,11.00
2018-05-11T06:15:34.288Z,11.00
2018-05-11T06:16:36.811Z,10.90
2018-05-11T06:17:39.331Z,10.80
2018-05-11T06:18:41.862Z,10.80
2018-05-11T06:19:44.379Z,10.70
2018-05-11T06:20:46.895Z,10.80
2018-05-11T06:21:49.409Z,10.70
2018-05-11T06:22:51.928Z,10.70
2018-05-11T06:23:54.441Z,10.80
2018-05-11T06:24:56.992Z,10.80
2018-05-11T06:26:00.225Z,10.80
2018-05-11T06:27:02.729Z,10.90
2018-05-11T06:28:05.278Z,10.80
2018-05-11T06:29:08.551Z,10.80
2018-05-11T06:30:11.080Z,10.80
2018-05-11T06:31:13.612Z,10.80
2018-05-11T06:32:16.936Z,10.70
2018-05-11T06:33:19.455Z,10.70
2018-05-11T06:34:21.971Z,10.70
2018-05-11T06:35:24.506Z,10.70
2018-05-11T06:36:27.772Z,10.70
2018-05-11T06:37:30.282Z,10.70
2018-05-11T06:38:33.560Z,10.70
2018-05-11T06:39:36.823Z,10.70
2018-05-11T06:40:39.396Z,10.70
2018-05-11T06:41:41.857Z,10.90
2018-05-11T06:42:44.382Z,10.90
2018-05-11T06:43:46.905Z,10.90
2018-05-11T06:44:49.414Z,11.00
2018-05-11T06:45:51.928Z,11.00
2018-05-11T06:46:54.435Z,11.10
2018-05-11T06:47:57.719Z,11.10
2018-05-11T06:49:00.991Z,11.20
2018-05-11T06:50:03.507Z,11.20
2018-05-11T06:51:05.997Z,11.40
2018-05-11T06:52:08.503Z,11.40
2018-05-11T06:53:11.813Z,11.30
2018-05-11T06:54:15.070Z,11.50
2018-05-11T06:55:17.690Z,11.40
2018-05-11T06:56:20.194Z,11.50
2018-05-11T06:57:22.699Z,11.50
2018-05-11T06:58:25.246Z,11.50
2018-05-11T06:59:27.769Z,11.40
2018-05-11T07:00:31.047Z,11.50
2018-05-11T07:01:34.319Z,11.50
2018-05-11T07:02:37.605Z,11.60
2018-05-11T07:03:40.147Z,11.60
2018-05-11T07:04:42.648Z,11.50
2018-05-11T07:05:45.179Z,11.50
2018-05-11T07:06:47.696Z,11.60
2018-05-11T07:07:50.285Z,11.70
2018-05-11T07:08:52.773Z,11.60
2018-05-11T07:09:55.301Z,11.70
2018-05-11T07:10:57.802Z,11.70
2018-05-11T07:12:01.068Z,11.90
2018-05-11T07:13:03.564Z,11.90
2018-05-11T07:14:06.110Z,12.00
2018-05-11T07:15:09.421Z,12.10
2018-05-11T07:16:12.079Z,12.00
2018-05-11T07:17:14.609Z,12.10
2018-05-11T07:18:17.124Z,12.20
2018-05-11T07:19:20.498Z,12.10
2018-05-11T07:20:23.006Z,12.10
2018-05-11T07:21:25.530Z,12.30
2018-05-11T07:22:28.045Z,12.40
2018-05-11T07:23:30.566Z,12.60
2018-05-11T07:24:33.086Z,12.60
2018-05-11T07:25:35.671Z,12.50
2018-05-11T07:26:38.134Z,12.40
2018-05-11T07:27:40.634Z,12.40
2018-05-11T07:28:43.135Z,12.40
2018-05-11T07:29:45.678Z,12.60
2018-05-11T07:30:48.186Z,12.70
2018-05-11T07:31:51.456Z,13.00
2018-05-11T07:32:53.968Z,12.90
2018-05-11T07:33:56.477Z,12.90
2018-05-11T07:34:59.099Z,13.00
2018-05-11T07:36:01.791Z,13.10
2018-05-11T07:37:04.357Z,13.20
2018-05-11T07:38:06.894Z,13.30
2018-05-11T07:39:10.200Z,13.40
2018-05-11T07:40:13.497Z,13.40
2018-05-11T07:41:16.012Z,13.40
2018-05-11T07:42:18.644Z,13.50
2018-05-11T07:43:21.328Z,13.40
2018-05-11T07:44:23.764Z,13.60
2018-05-11T07:45:27.065Z,13.70
2018-05-11T07:46:30.337Z,13.80
2018-05-11T07:47:32.865Z,13.70
2018-05-11T07:48:36.179Z,13.60
2018-05-11T07:49:38.804Z,13.60
2018-05-11T07:50:41.376Z,13.70
2018-05-11T07:51:43.878Z,13.70
2018-05-11T07:52:46.425Z,13.90
2018-05-11T07:53:48.964Z,13.80
2018-05-11T07:54:52.239Z,13.90
2018-05-11T07:55:54.759Z,13.90
2018-05-11T07:56:57.261Z,13.90
2018-05-11T07:57:59.790Z,14.00
2018-05-11T07:59:02.307Z,13.90
2018-05-11T08:00:04.851Z,13.90
2018-05-11T08:01:07.399Z,13.90
2018-05-11T08:02:09.916Z,14.00
2018-05-11T08:03:12.455Z,13.90
2018-05-11T08:04:14.956Z,14.00
2018-05-11T08:05:17.491Z,14.10
2018-05-11T08:06:20.055Z,14.20
2018-05-11T08:07:22.629Z,14.20
2018-05-11T08:08:25.122Z,14.30
2018-05-11T08:09:27.628Z,14.40
2018-05-11T08:10:30.144Z,14.30
2018-05-11T08:11:32.662Z,14.30
2018-05-11T08:12:35.194Z,14.20
2018-05-11T08:13:37.848Z,14.40
2018-05-11T08:14:40.369Z,14.50
2018-05-11T08:15:42.895Z,14.50
2018-05-11T08:16:45.470Z,14.70
2018-05-11T08:17:48.053Z,14.70
2018-05-11T08:18:50.574Z,15.00
2018-05-11T08:19:53.117Z,15.00
2018-05-11T08:20:55.668Z,15.00
2018-05-11T08:21:58.198Z,15.00
2018-05-11T08:23:01.483Z,15.00
2018-05-11T08:24:04.770Z,15.10
2018-05-11T08:25:08.080Z,15.10
2018-05-11T08:26:10.665Z,15.10
2018-05-11T08:27:13.306Z,15.30
2018-05-11T08:28:16.586Z,15.70
2018-05-11T08:29:19.090Z,15.70
2018-05-11T08:30:21.615Z,15.90
2018-05-11T08:31:24.114Z,16.20
2018-05-11T08:32:27.403Z,16.80
2018-05-11T08:33:30.691Z,17.20
2018-05-11T08:34:33.980Z,17.50
2018-05-11T08:35:37.267Z,17.70
2018-05-11T08:36:40.539Z,18.00
2018-05-11T08:37:43.073Z,18.00
2018-05-11T08:38:45.678Z,18.40
2018-05-11T08:39:48.194Z,18.60
2018-05-11T08:40:50.729Z,18.60
2018-05-11T08:41:54.026Z,19.50
2018-05-11T08:42:57.331Z,20.10
2018-05-11T08:43:59.836Z,20.00
2018-05-11T08:45:02.349Z,19.80
2018-05-11T08:46:05.615Z,19.20
2018-05-11T08:47:09.651Z,19.50
2018-05-11T08:48:12.959Z,19.70
2018-05-11T08:49:15.473Z,19.60
2018-05-11T08:50:18.004Z,20.10
2018-05-11T08:51:20.539Z,20.30
2018-05-11T08:52:23.032Z,20.30
2018-05-11T08:53:26.327Z,20.10
2018-05-11T08:54:28.909Z,20.10
2018-05-11T08:55:31.424Z,19.80
2018-05-11T08:56:33.931Z,19.80
2018-05-11T08:57:36.429Z,19.50
2018-05-11T08:58:38.947Z,19.30
2018-05-11T08:59:43.001Z,19.40
2018-05-11T09:00:45.540Z,19.40
2018-05-11T09:01:48.136Z,19.60
2018-05-11T09:02:50.648Z,19.90
2018-05-11T09:03:53.283Z,20.30
2018-05-11T09:04:55.822Z,20.30
2018-05-11T09:05:59.091Z,19.90
2018-05-11T09:07:01.646Z,20.00
2018-05-11T09:08:04.178Z,20.00
2018-05-11T09:09:06.678Z,19.80
2018-05-11T09:10:10.516Z,19.50
2018-05-11T09:11:13.069Z,19.40
2018-05-11T09:12:15.578Z,19.80
2018-05-11T09:13:18.879Z,19.90
2018-05-11T09:14:21.418Z,19.90
2018-05-11T09:15:23.922Z,19.70
2018-05-11T09:16:26.418Z,19.40
2018-05-11T09:17:28.914Z,19.50
2018-05-11T09:18:31.465Z,19.80
2018-05-11T09:19:34.008Z,20.40
2018-05-11T09:20:36.580Z,20.50
2018-05-11T09:21:39.112Z,20.70
2018-05-11T09:22:42.388Z,21.10
2018-05-11T09:23:44.891Z,21.00
2018-05-11T09:24:48.181Z,21.50
2018-05-11T09:25:51.502Z,21.50
2018-05-11T09:26:54.016Z,21.50
2018-05-11T09:27:56.531Z,22.20
2018-05-11T09:28:59.054Z,22.30
2018-05-11T09:30:01.549Z,22.70
2018-05-11T09:31:04.861Z,22.70
2018-05-11T09:32:07.390Z,22.70
2018-05-11T09:33:09.895Z,22.50
2018-05-11T09:34:12.471Z,22.80
2018-05-11T09:35:15.364Z,22.70
2018-05-11T09:36:17.896Z,22.30
2018-05-11T09:37:20.411Z,22.50
2018-05-11T09:38:22.928Z,22.70
2018-05-11T09:39:25.463Z,23.10
2018-05-11T09:40:27.971Z,23.30
2018-05-11T09:41:30.521Z,23.20
2018-05-11T09:42:33.047Z,23.40
2018-05-11T09:43:35.561Z,22.50
2018-05-11T09:44:38.070Z,22.40
2018-05-11T09:45:41.374Z,22.00
2018-05-11T09:46:43.943Z,22.00
2018-05-11T09:47:46.475Z,21.90
2018-05-11T09:48:49.086Z,22.10
2018-05-11T09:49:51.595Z,21.90
2018-05-11T09:50:54.122Z,21.80
2018-05-11T09:51:56.683Z,21.80
2018-05-11T09:52:59.952Z,20.80
2018-05-11T09:54:02.438Z,20.80
2018-05-11T09:55:05.743Z,20.80
2018-05-11T09:56:08.252Z,20.80
2018-05-11T09:57:10.805Z,20.80
2018-05-11T09:58:13.342Z,20.60
2018-05-11T09:59:16.622Z,21.00
2018-05-11T10:00:25.889Z,21.00
2018-05-11T10:01:28.402Z,21.00
2018-05-11T10:02:30.923Z,21.20
2018-05-11T10:03:33.496Z,21.20
2018-05-11T10:04:36.013Z,21.40
2018-05-11T10:05:39.286Z,21.60
2018-05-11T10:06:41.796Z,21.60
2018-05-11T10:07:45.203Z,21.20
2018-05-11T10:08:47.668Z,21.20
2018-05-11T10:09:50.954Z,21.10
2018-05-11T10:10:54.242Z,21.20
2018-05-11T10:11:57.529Z,20.90
2018-05-11T10:13:00.848Z,20.80
2018-05-11T10:14:03.399Z,20.80
2018-05-11T10:15:05.930Z,20.90
2018-05-11T10:16:08.472Z,20.80
2018-05-11T10:17:11.041Z,20.50
2018-05-11T10:18:13.601Z,20.30
2018-05-11T10:19:16.120Z,20.50
2018-05-11T10:20:18.641Z,20.40
2018-05-11T10:21:21.168Z,20.40
2018-05-11T10:22:23.703Z,20.50
2018-05-11T10:23:26.219Z,20.40
2018-05-11T10:24:29.474Z,20.50
2018-05-11T10:25:31.988Z,20.50
2018-05-11T10:26:34.501Z,20.20
2018-05-11T10:27:37.006Z,20.20
2018-05-11T10:28:39.542Z,20.20
2018-05-11T10:29:42.084Z,20.00
2018-05-11T10:30:44.592Z,19.80
2018-05-11T10:31:47.394Z,19.90
2018-05-11T10:32:49.927Z,19.50
2018-05-11T10:33:52.471Z,18.90
2018-05-11T10:34:55.024Z,18.70
2018-05-11T10:35:58.304Z,18.20
2018-05-11T10:37:01.606Z,17.90
2018-05-11T10:38:04.129Z,17.90
2018-05-11T10:39:06.645Z,18.00
2018-05-11T10:40:09.184Z,18.30
2018-05-11T10:41:13.184Z,18.50
2018-05-11T10:42:15.684Z,18.50
2018-05-11T10:43:18.203Z,18.10
2018-05-11T10:44:20.703Z,17.90
2018-05-11T10:45:23.275Z,17.70
2018-05-11T10:46:25.780Z,17.50
2018-05-11T10:47:29.059Z,17.70
2018-05-11T10:48:32.377Z,17.50
2018-05-11T10:49:34.868Z,17.50
2018-05-11T10:50:37.387Z,17.30
2018-05-11T10:51:40.647Z,17.40
2018-05-11T10:52:43.136Z,17.40
2018-05-11T10:53:46.434Z,17.70
2018-05-11T10:54:49.734Z,17.90
2018-05-11T10:55:53.011Z,17.90
2018-05-11T10:56:56.334Z,18.00
2018-05-11T10:57:58.973Z,17.90
2018-05-11T10:59:02.256Z,17.90
2018-05-11T11:00:04.804Z,17.80
2018-05-11T11:01:07.325Z,17.90
2018-05-11T11:02:09.887Z,18.10
2018-05-11T11:03:13.168Z,18.10
2018-05-11T11:04:16.445Z,18.10
2018-05-11T11:05:19.796Z,18.20
2018-05-11T11:06:22.294Z,18.10
2018-05-11T11:07:24.799Z,17.90
2018-05-11T11:08:27.302Z,17.50
2018-05-11T11:09:29.811Z,17.30
2018-05-11T11:10:32.349Z,17.20
2018-05-11T11:11:34.902Z,17.10
2018-05-11T11:12:37.450Z,17.10
2018-05-11T11:13:40.040Z,16.90
2018-05-11T11:14:42.560Z,17.00
2018-05-11T11:15:45.094Z,17.00
2018-05-11T11:16:47.691Z,17.00
2018-05-11T11:17:50.220Z,17.00
2018-05-11T11:18:52.727Z,16.90
2018-05-11T11:19:55.239Z,16.90
2018-05-11T11:20:57.785Z,16.90
2018-05-11T11:22:00.326Z,17.00
2018-05-11T11:23:02.833Z,17.00
2018-05-11T11:24:05.334Z,17.10
2018-05-11T11:25:07.838Z,17.20
2018-05-11T11:26:10.371Z,17.30
2018-05-11T11:27:12.876Z,17.30
2018-05-11T11:28:15.413Z,17.10
2018-05-11T11:29:18.030Z,17.00
2018-05-11T11:30:21.262Z,17.00
2018-05-11T11:31:24.577Z,16.60
2018-05-11T11:32:27.069Z,16.60
2018-05-11T11:33:29.575Z,16.50
2018-05-11T11:34:32.121Z,16.40
2018-05-11T11:35:34.629Z,16.30
2018-05-11T11:36:37.906Z,16.30
2018-05-11T11:37:40.421Z,16.30
2018-05-11T11:38:42.950Z,16.30
2018-05-11T11:39:45.477Z,16.30
2018-05-11T11:40:48.047Z,16.30
2018-05-11T11:41:50.610Z,16.30
2018-05-11T11:42:53.137Z,16.40
2018-05-11T11:43:55.661Z,16.30
2018-05-11T11:44:58.209Z,16.20
2018-05-11T11:46:00.772Z,16.20
2018-05-11T11:47:04.082Z,16.30
2018-05-11T11:48:06.612Z,16.30
2018-05-11T11:49:09.926Z,16.40
2018-05-11T11:50:12.453Z,16.30
2018-05-11T11:51:15.018Z,16.50
2018-05-11T11:52:17.518Z,16.70
2018-05-11T11:53:20.806Z,17.00
2018-05-11T11:54:24.071Z,17.00
2018-05-11T11:55:27.365Z,17.00
2018-05-11T11:56:31.512Z,17.10
2018-05-11T11:57:33.952Z,17.10
2018-05-11T11:58:36.494Z,17.10
2018-05-11T11:59:39.003Z,17.10
2018-05-11T12:00:42.282Z,17.20
2018-05-11T12:01:45.638Z,17.20
2018-05-11T12:02:48.170Z,17.20
2018-05-11T12:03:50.690Z,17.20
2018-05-11T12:04:53.194Z,17.30
2018-05-11T12:05:56.478Z,17.40
2018-05-11T12:06:59.738Z,17.50
2018-05-11T12:08:02.269Z,17.50
2018-05-11T12:09:04.802Z,17.60
2018-05-11T12:10:07.323Z,17.50
2018-05-11T12:11:09.877Z,17.30
2018-05-11T12:12:12.402Z,17.30
2018-05-11T12:13:15.931Z,17.30
2018-05-11T12:14:19.247Z,17.40
2018-05-11T12:15:21.775Z,17.30
2018-05-11T12:16:25.045Z,17.80
2018-05-11T12:17:28.613Z,17.80
2018-05-11T12:18:35.446Z,17.80
2018-05-11T12:19:50.182Z,17.60
2018-05-11T12:20:54.655Z,17.70
2018-05-11T12:21:57.769Z,17.70
2018-05-11T12:23:04.636Z,17.50
2018-05-11T12:24:08.794Z,17.40
2018-05-11T12:25:14.797Z,17.20
2018-05-11T12:26:17.548Z,17.20
2018-05-11T12:27:20.102Z,17.10
2018-05-11T12:28:24.291Z,17.20
2018-05-11T12:29:27.606Z,17.50
2018-05-11T12:30:30.122Z,17.40
2018-05-11T12:31:33.409Z,17.60
2018-05-11T12:32:36.799Z,17.60
2018-05-11T12:33:39.329Z,17.50
2018-05-11T12:34:41.884Z,17.50
2018-05-11T12:35:44.416Z,17.50
2018-05-11T12:36:46.926Z,17.40
2018-05-11T12:37:49.446Z,17.20
2018-05-11T12:38:51.950Z,17.10
2018-05-11T12:39:55.233Z,17.10
2018-05-11T12:40:58.573Z,17.20
2018-05-11T12:42:01.060Z,17.20
2018-05-11T12:43:03.600Z,17.20
2018-05-11T12:44:06.162Z,17.20
2018-05-11T12:45:10.407Z,17.20
2018-05-11T12:46:12.947Z,17.20
2018-05-11T12:47:16.267Z,17.20
2018-05-11T12:48:18.775Z,17.20
2018-05-11T12:49:22.055Z,17.20
2018-05-11T12:50:24.582Z,17.10
2018-05-11T12:51:27.084Z,17.20
2018-05-11T12:52:29.609Z,17.20
2018-05-11T12:53:32.153Z,17.30
2018-05-11T12:54:35.452Z,17.30
2018-05-11T12:55:37.978Z,17.30
2018-05-11T12:56:40.511Z,17.50
2018-05-11T12:57:43.028Z,17.50
2018-05-11T12:58:45.548Z,17.60
2018-05-11T12:59:48.098Z,17.60
2018-05-11T13:00:51.409Z,17.60
2018-05-11T13:01:53.977Z,17.60
2018-05-11T13:02:56.530Z,17.60
2018-05-11T13:03:59.817Z,17.50
2018-05-11T13:05:03.100Z,17.50
2018-05-11T13:06:06.402Z,17.40
2018-05-11T13:07:09.726Z,17.30
2018-05-11T13:08:12.289Z,17.30
2018-05-11T13:09:14.950Z,17.30
2018-05-11T13:10:17.528Z,17.20
2018-05-11T13:11:20.100Z,17.10
2018-05-11T13:12:22.617Z,17.20
2018-05-11T13:13:25.145Z,17.20
2018-05-11T13:14:27.645Z,17.10
2018-05-11T13:15:30.219Z,17.10
2018-05-11T13:16:32.759Z,17.10
2018-05-11T13:17:35.273Z,17.30
2018-05-11T13:18:37.766Z,17.30
2018-05-11T13:19:41.177Z,17.50
2018-05-11T13:20:43.777Z,17.50
2018-05-11T13:21:47.010Z,17.70
2018-05-11T13:22:49.569Z,17.70
2018-05-11T13:23:52.078Z,17.70
2018-05-11T13:24:54.593Z,17.70
2018-05-11T13:25:57.107Z,17.80
2018-05-11T13:27:00.427Z,17.70
2018-05-11T13:28:02.943Z,17.70
2018-05-11T13:29:05.457Z,17.70
2018-05-11T13:30:07.974Z,17.60
2018-05-11T13:31:10.495Z,17.60
2018-05-11T13:32:13.048Z,17.50
2018-05-11T13:33:16.365Z,17.70
2018-05-11T13:34:18.925Z,17.60
2018-05-11T13:35:21.441Z,17.70
2018-05-11T13:36:24.027Z,17.60
2018-05-11T13:37:26.514Z,17.50
2018-05-11T13:38:29.774Z,17.60
2018-05-11T13:39:32.371Z,17.60
2018-05-11T13:40:35.658Z,17.60